Time;durP1;ratioP1;P1;durP2;ratioP2;P2;SDS_P1;SDS_P2;PMS_P1;PMS_P2;Temp;Humidity;BMP_temperature;BMP_pressure;BME280_temperature;BME280_humidity;BME280_pressure;Samples;Min_cycle;Max_cycle;Signal;HPM_P1;HPM_P2
2022/11/21 00:01:33;;;;;;;;;;;23.80;99.90;;;;;;4994960;28;19948;-51
2022/11/21 00:03:59;;;;;;;;;;;23.80;99.90;;;;;;4994949;28;19905;-51
2022/11/21 00:06:24;;;;;;;;;;;23.80;99.90;;;;;;4995056;28;19913;-51
2022/11/21 00:08:50;;;;;;;;;;;23.80;99.90;;;;;;4994823;28;20271;-51
2022/11/21 00:11:16;;;;;;;;;;;23.70;99.90;;;;;;4994982;28;20349;-51
2022/11/21 00:13:41;;;;;;;;;;;23.80;99.90;;;;;;4994873;28;19906;-51
2022/11/21 00:16:09;;;;;;;;;;;23.70;99.90;;;;;;4994923;28;19906;-50
2022/11/21 00:18:35;;;;;;;;;;;23.70;99.90;;;;;;4995017;28;20277;-51
2022/11/21 00:21:04;;;;;;;;;;;23.70;99.90;;;;;;4977096;28;19914;-51
2022/11/21 00:23:30;;;;;;;;;;;23.70;99.90;;;;;;4994912;28;19929;-51
2022/11/21 00:25:56;;;;;;;;;;;23.70;99.90;;;;;;4994661;28;20360;-51
2022/11/21 00:28:21;;;;;;;;;;;23.70;99.90;;;;;;4994733;28;19913;-51
2022/11/21 00:30:47;;;;;;;;;;;23.70;99.90;;;;;;4994668;28;19906;-51
2022/11/21 00:33:12;;;;;;;;;;;23.60;99.90;;;;;;4993339;28;20000;-51
2022/11/21 00:35:38;;;;;;;;;;;23.60;99.90;;;;;;4994702;28;19912;-50
2022/11/21 00:38:03;;;;;;;;;;;23.60;99.90;;;;;;4994697;28;19945;-51
2022/11/21 00:40:29;;;;;;;;;;;23.60;99.90;;;;;;4994435;28;19917;-51
2022/11/21 00:42:54;;;;;;;;;;;23.60;99.90;;;;;;4994506;28;20358;-51
2022/11/21 00:45:20;;;;;;;;;;;23.60;99.90;;;;;;4994573;28;19928;-51
2022/11/21 00:47:46;;;;;;;;;;;23.60;99.90;;;;;;4994263;28;19909;-51
2022/11/21 00:50:11;;;;;;;;;;;23.60;99.90;;;;;;4994615;28;19960;-51
2022/11/21 00:52:37;;;;;;;;;;;23.50;99.90;;;;;;4994457;28;19937;-51
2022/11/21 00:55:02;;;;;;;;;;;23.50;99.90;;;;;;4994523;28;19906;-51
2022/11/21 00:57:28;;;;;;;;;;;23.50;99.90;;;;;;4994345;28;20001;-51
2022/11/21 00:59:54;;;;;;;;;;;23.50;99.90;;;;;;4999850;23;19933;-43
2022/11/21 01:02:19;;;;;;;;;;;23.50;99.90;;;;;;4974991;28;20009;-43
2022/11/21 01:04:45;;;;;;;;;;;23.50;99.90;;;;;;4975037;28;19906;-43
2022/11/21 01:07:11;;;;;;;;;;;23.50;99.90;;;;;;4974962;28;20251;-44
2022/11/21 01:09:37;;;;;;;;;;;23.50;99.90;;;;;;4974851;28;19906;-44
2022/11/21 01:12:03;;;;;;;;;;;23.50;99.90;;;;;;4974916;28;19906;-44
2022/11/21 01:14:28;;;;;;;;;;;23.50;99.90;;;;;;4974690;28;20366;-44
2022/11/21 01:16:54;;;;;;;;;;;23.50;99.90;;;;;;4974521;28;19910;-44
2022/11/21 01:19:19;;;;;;;;;;;23.50;99.90;;;;;;4973321;28;19930;-43
2022/11/21 01:21:45;;;;;;;;;;;23.50;99.90;;;;;;4976600;28;19914;-43
2022/11/21 01:24:11;;;;;;;;;;;23.40;99.90;;;;;;4978792;28;19906;-43
2022/11/21 01:26:37;;;;;;;;;;;23.50;99.90;;;;;;4961197;28;19906;-44
2022/11/21 01:29:03;;;;;;;;;;;23.50;99.90;;;;;;4978683;28;19906;-44
2022/11/21 01:31:29;;;;;;;;;;;23.40;99.90;;;;;;4978542;28;19937;-44
2022/11/21 01:33:56;;;;;;;;;;;23.40;99.90;;;;;;4978389;28;19914;-44
2022/11/21 01:36:22;;;;;;;;;;;23.40;99.90;;;;;;4978485;28;20274;-44
2022/11/21 01:38:49;;;;;;;;;;;23.40;99.90;;;;;;4978343;28;19913;-44
2022/11/21 01:41:17;;;;;;;;;;;23.40;99.90;;;;;;4978446;28;20255;-44
2022/11/21 01:43:43;;;;;;;;;;;23.40;99.90;;;;;;4978349;28;20381;-44
2022/11/21 01:46:08;;;;;;;;;;;23.40;99.90;;;;;;4978541;28;20000;-45
2022/11/21 01:48:52;;;;;;;;;;;23.40;99.90;;;;;;4978572;28;19913;-44
2022/11/21 01:51:33;;;;;;;;;;;23.30;99.90;;;;;;4978411;28;19996;-44
2022/11/21 01:54:02;;;;;;;;;;;23.40;99.90;;;;;;4978195;28;20346;-44
2022/11/21 01:56:29;;;;;;;;;;;23.40;99.90;;;;;;4978070;28;20366;-44
2022/11/21 02:01:32;;;;;;;;;;;23.30;99.90;;;;;;4995507;28;19960;-48
2022/11/21 02:03:59;;;;;;;;;;;23.30;99.90;;;;;;4997385;28;20441;-49
2022/11/21 02:06:24;;;;;;;;;;;23.30;99.90;;;;;;4997453;28;19906;-47
2022/11/21 02:08:50;;;;;;;;;;;23.30;99.90;;;;;;4997223;28;19906;-47
2022/11/21 02:11:36;;;;;;;;;;;23.30;99.90;;;;;;4997226;28;20375;-47
2022/11/21 02:14:02;;;;;;;;;;;23.20;99.90;;;;;;4997260;28;19951;-47
2022/11/21 02:16:27;;;;;;;;;;;23.20;99.90;;;;;;4997254;28;20358;-49
2022/11/21 02:18:53;;;;;;;;;;;23.20;99.90;;;;;;4995829;28;19912;-47
2022/11/21 02:21:27;;;;;;;;;;;23.20;99.90;;;;;;4997135;28;19949;-47
2022/11/21 02:23:59;;;;;;;;;;;23.20;99.90;;;;;;4997467;28;19906;-47
2022/11/21 02:26:25;;;;;;;;;;;23.20;99.90;;;;;;4996939;28;19913;-47
2022/11/21 02:28:51;;;;;;;;;;;23.20;99.90;;;;;;4996881;28;19906;-47
2022/11/21 02:31:16;;;;;;;;;;;23.20;99.90;;;;;;4996930;28;19957;-47
2022/11/21 02:33:42;;;;;;;;;;;23.10;99.90;;;;;;4996565;28;19913;-47
2022/11/21 02:36:26;;;;;;;;;;;23.20;99.90;;;;;;4997234;28;19906;-47
2022/11/21 02:38:51;;;;;;;;;;;23.20;99.90;;;;;;4996759;28;19912;-47
2022/11/21 02:41:25;;;;;;;;;;;23.10;99.90;;;;;;4996486;28;19914;-47
2022/11/21 02:43:56;;;;;;;;;;;23.10;99.90;;;;;;4997004;28;19932;-47
2022/11/21 02:46:21;;;;;;;;;;;23.10;99.90;;;;;;4996709;28;19906;-47
2022/11/21 02:48:47;;;;;;;;;;;23.10;99.90;;;;;;4996677;28;19906;-47
2022/11/21 02:51:12;;;;;;;;;;;23.10;99.90;;;;;;4996677;28;20004;-47
2022/11/21 02:53:38;;;;;;;;;;;23.10;99.90;;;;;;4996543;28;20021;-47
2022/11/21 02:56:04;;;;;;;;;;;23.10;99.90;;;;;;4996390;28;19906;-47
2022/11/21 02:58:29;;;;;;;;;;;23.10;99.90;;;;;;4996309;28;19906;-47
2022/11/21 03:00:55;;;;;;;;;;;23.10;99.90;;;;;;4996692;28;20370;-47
2022/11/21 03:03:21;;;;;;;;;;;23.10;99.90;;;;;;4996235;28;19952;-47
2022/11/21 03:05:47;;;;;;;;;;;23.10;99.90;;;;;;4996506;28;19909;-47
2022/11/21 03:08:13;;;;;;;;;;;23.10;99.90;;;;;;4996238;28;19910;-47
2022/11/21 03:10:38;;;;;;;;;;;23.10;99.90;;;;;;4994967;28;20040;-47
2022/11/21 03:13:04;;;;;;;;;;;23.00;99.90;;;;;;4994810;28;19952;-47
2022/11/21 03:15:33;;;;;;;;;;;23.00;99.90;;;;;;4996039;28;19913;-47
2022/11/21 03:18:01;;;;;;;;;;;23.00;99.90;;;;;;4995966;28;19912;-47
2022/11/21 03:20:27;;;;;;;;;;;23.00;99.90;;;;;;4996077;28;19937;-47
2022/11/21 03:22:53;;;;;;;;;;;23.10;99.90;;;;;;4995880;28;19960;-47
2022/11/21 03:25:19;;;;;;;;;;;23.00;99.90;;;;;;4995882;28;19905;-47
2022/11/21 03:27:44;;;;;;;;;;;23.00;99.90;;;;;;4995902;28;20004;-47
2022/11/21 03:30:10;;;;;;;;;;;23.00;99.90;;;;;;4994533;28;19993;-47
2022/11/21 03:32:36;;;;;;;;;;;23.00;99.90;;;;;;4995689;28;20364;-47
2022/11/21 03:35:01;;;;;;;;;;;23.00;99.90;;;;;;4995652;28;19952;-47
2022/11/21 03:37:27;;;;;;;;;;;23.00;99.90;;;;;;4995687;28;20358;-47
2022/11/21 03:39:53;;;;;;;;;;;23.00;99.90;;;;;;4995796;28;20238;-47
2022/11/21 03:42:18;;;;;;;;;;;23.00;99.90;;;;;;4994321;28;19937;-47
2022/11/21 03:44:44;;;;;;;;;;;23.00;99.90;;;;;;4994908;28;19905;-47
2022/11/21 03:47:09;;;;;;;;;;;23.00;99.90;;;;;;4994217;28;20405;-47
2022/11/21 03:49:35;;;;;;;;;;;23.00;99.90;;;;;;4995470;28;19916;-47
2022/11/21 03:52:00;;;;;;;;;;;23.00;99.90;;;;;;4995305;28;19960;-47
2022/11/21 03:54:26;;;;;;;;;;;23.00;99.90;;;;;;4995513;28;19906;-47
2022/11/21 03:56:52;;;;;;;;;;;23.00;99.90;;;;;;4995412;28;19913;-47
2022/11/21 03:59:17;;;;;;;;;;;23.00;99.90;;;;;;4995588;28;19978;-47
2022/11/21 04:01:43;;;;;;;;;;;23.00;99.90;;;;;;4995010;28;19914;-47
2022/11/21 04:04:08;;;;;;;;;;;23.00;99.90;;;;;;4995030;28;20350;-47
2022/11/21 04:06:34;;;;;;;;;;;23.00;99.90;;;;;;4995343;28;19912;-47
2022/11/21 04:08:59;;;;;;;;;;;23.00;99.90;;;;;;4995204;28;19910;-47
2022/11/21 04:11:25;;;;;;;;;;;23.00;99.90;;;;;;4995182;28;19910;-47
2022/11/21 04:13:51;;;;;;;;;;;22.90;99.90;;;;;;4995141;28;20414;-48
2022/11/21 04:16:16;;;;;;;;;;;22.90;99.90;;;;;;4994923;28;19905;-47
2022/11/21 04:18:42;;;;;;;;;;;22.90;99.90;;;;;;4994897;28;19996;-47
2022/11/21 04:21:08;;;;;;;;;;;22.90;99.90;;;;;;4993465;28;20281;-47
2022/11/21 04:23:33;;;;;;;;;;;22.90;99.90;;;;;;4994840;28;19906;-47
2022/11/21 04:25:59;;;;;;;;;;;22.90;99.90;;;;;;4994965;28;19906;-47
2022/11/21 04:28:25;;;;;;;;;;;22.90;99.90;;;;;;4994829;28;20366;-47
2022/11/21 04:30:51;;;;;;;;;;;22.90;99.90;;;;;;4994928;28;20314;-52
2022/11/21 04:33:17;;;;;;;;;;;22.90;99.90;;;;;;4994633;28;19905;-47
2022/11/21 04:35:43;;;;;;;;;;;22.90;99.90;;;;;;4994874;28;19914;-47
2022/11/21 04:38:09;;;;;;;;;;;22.90;99.90;;;;;;4994740;28;19928;-48
2022/11/21 04:40:34;;;;;;;;;;;22.90;99.90;;;;;;4994473;28;19914;-47
2022/11/21 04:43:00;;;;;;;;;;;22.90;99.90;;;;;;4994464;28;19980;-47
2022/11/21 04:45:26;;;;;;;;;;;22.80;99.90;;;;;;4994789;28;20266;-47
2022/11/21 04:47:51;;;;;;;;;;;22.80;99.90;;;;;;4994184;28;19949;-47
2022/11/21 04:50:17;;;;;;;;;;;22.80;99.90;;;;;;4994734;28;20004;-47
2022/11/21 04:52:53;;;;;;;;;;;22.80;99.90;;;;;;4994198;28;19912;-47
2022/11/21 04:55:19;;;;;;;;;;;22.80;99.90;;;;;;4994346;28;19913;-47
2022/11/21 04:57:45;;;;;;;;;;;22.80;99.90;;;;;;4993199;28;19906;-47
2022/11/21 05:00:11;;;;;;;;;;;22.80;99.90;;;;;;5006499;23;19928;-45
2022/11/21 05:02:37;;;;;;;;;;;22.80;99.90;;;;;;4994611;28;19909;-44
2022/11/21 05:05:03;;;;;;;;;;;22.80;99.90;;;;;;4994501;28;19912;-44
2022/11/21 05:07:28;;;;;;;;;;;22.70;99.90;;;;;;4994405;28;19933;-44
2022/11/21 05:09:54;;;;;;;;;;;22.80;99.90;;;;;;4994318;28;20362;-44
2022/11/21 05:15:04;;;;;;;;;;;22.80;99.90;;;;;;4994512;28;19913;-43
2022/11/21 05:17:30;;;;;;;;;;;22.70;99.90;;;;;;4994118;28;20242;-44
2022/11/21 05:19:55;;;;;;;;;;;22.70;99.90;;;;;;4994384;28;19910;-44
2022/11/21 05:22:21;;;;;;;;;;;22.70;99.90;;;;;;4994220;28;20358;-44
2022/11/21 05:24:46;;;;;;;;;;;22.70;99.90;;;;;;4994037;28;19912;-44
2022/11/21 05:27:12;;;;;;;;;;;22.70;99.90;;;;;;4994320;28;20437;-44
2022/11/21 05:29:37;;;;;;;;;;;22.70;99.90;;;;;;4976673;28;19905;-44
2022/11/21 05:32:03;;;;;;;;;;;22.70;99.90;;;;;;4994187;28;20020;-44
2022/11/21 05:34:29;;;;;;;;;;;22.70;99.90;;;;;;4993967;28;19905;-44
2022/11/21 05:36:57;;;;;;;;;;;22.70;99.90;;;;;;4994203;28;19910;-44
2022/11/21 05:39:23;;;;;;;;;;;22.70;99.90;;;;;;4994078;28;19952;-44
2022/11/21 05:41:49;;;;;;;;;;;22.70;99.90;;;;;;4993821;28;19984;-44
2022/11/21 05:44:15;;;;;;;;;;;22.70;99.90;;;;;;4993907;28;19905;-45
2022/11/21 05:46:41;;;;;;;;;;;22.60;99.90;;;;;;4993907;28;19906;-44
2022/11/21 05:49:07;;;;;;;;;;;22.60;99.90;;;;;;4993823;28;19912;-44
2022/11/21 05:51:32;;;;;;;;;;;22.60;99.90;;;;;;4993796;28;19941;-44
2022/11/21 05:53:58;;;;;;;;;;;22.60;99.90;;;;;;4993704;28;20270;-44
2022/11/21 05:56:24;;;;;;;;;;;22.60;99.90;;;;;;4993804;28;20354;-44
2022/11/21 05:58:49;;;;;;;;;;;22.60;99.90;;;;;;4993724;28;19944;-44
2022/11/21 06:03:25;;;;;;;;;;;22.60;99.90;;;;;;4993676;28;19957;-45
2022/11/21 06:04:01;;;;;;;;;;;22.60;99.90;;;;;;4993822;28;19906;-44
2022/11/21 06:06:26;;;;;;;;;;;22.60;99.90;;;;;;4993838;28;19913;-44
2022/11/21 06:08:52;;;;;;;;;;;22.60;99.90;;;;;;4997080;28;19902;-44
2022/11/21 06:11:18;;;;;;;;;;;22.60;99.90;;;;;;4997260;28;19996;-44
2022/11/21 06:13:43;;;;;;;;;;;22.60;99.90;;;;;;4997353;28;20000;-44
2022/11/21 06:16:10;;;;;;;;;;;22.60;99.90;;;;;;4997198;28;19905;-44
2022/11/21 06:18:37;;;;;;;;;;;22.60;99.90;;;;;;4997340;28;19905;-44
2022/11/21 06:21:04;;;;;;;;;;;22.60;99.90;;;;;;4996920;28;19914;-44
2022/11/21 06:23:29;;;;;;;;;;;22.60;99.90;;;;;;4995844;28;19913;-44
2022/11/21 06:25:56;;;;;;;;;;;22.50;99.90;;;;;;4997006;28;19906;-44
2022/11/21 06:28:21;;;;;;;;;;;22.60;99.90;;;;;;4996954;28;20293;-44
2022/11/21 06:30:50;;;;;;;;;;;22.50;99.90;;;;;;4995959;28;19906;-44
2022/11/21 06:33:16;;;;;;;;;;;22.50;99.90;;;;;;4996932;28;19909;-44
2022/11/21 06:35:42;;;;;;;;;;;22.50;99.90;;;;;;4996821;28;19960;-45
2022/11/21 06:38:08;;;;;;;;;;;22.50;99.90;;;;;;4996843;28;19909;-45
2022/11/21 06:40:33;;;;;;;;;;;22.50;99.90;;;;;;4995696;28;19914;-44
2022/11/21 06:42:59;;;;;;;;;;;22.50;99.90;;;;;;4996585;28;19910;-44
2022/11/21 06:45:25;;;;;;;;;;;22.50;99.90;;;;;;4996655;28;19937;-44
2022/11/21 06:47:50;;;;;;;;;;;22.50;99.90;;;;;;4996357;28;19910;-44
2022/11/21 06:50:16;;;;;;;;;;;22.50;99.90;;;;;;4995150;28;19906;-44
2022/11/21 06:52:41;;;;;;;;;;;22.50;99.90;;;;;;4996392;28;20328;-43
2022/11/21 06:55:08;;;;;;;;;;;22.40;99.90;;;;;;4996553;28;19912;-44
2022/11/21 06:57:34;;;;;;;;;;;22.40;99.90;;;;;;4995329;28;20274;-44
2022/11/21 06:59:59;;;;;;;;;;;22.50;99.90;;;;;;4996280;28;19918;-44
2022/11/21 07:02:26;;;;;;;;;;;22.40;99.90;;;;;;4996374;28;20015;-44
2022/11/21 07:04:51;;;;;;;;;;;22.40;99.90;;;;;;4996119;28;19906;-44
2022/11/21 07:07:17;;;;;;;;;;;22.40;99.90;;;;;;4996096;28;20273;-45
2022/11/21 07:09:43;;;;;;;;;;;22.40;99.90;;;;;;4995494;28;19933;-44
2022/11/21 07:14:53;;;;;;;;;;;22.40;99.90;;;;;;4996320;28;20008;-44
2022/11/21 07:17:19;;;;;;;;;;;22.40;99.90;;;;;;4995973;28;20005;-48
2022/11/21 07:19:44;;;;;;;;;;;22.40;99.90;;;;;;4993659;28;19948;-45
2022/11/21 07:22:10;;;;;;;;;;;22.40;99.90;;;;;;4996008;28;19914;-44
2022/11/21 07:24:36;;;;;;;;;;;22.40;99.90;;;;;;4995890;28;19912;-44
2022/11/21 07:27:01;;;;;;;;;;;22.40;99.90;;;;;;4995756;28;20366;-44
2022/11/21 07:29:27;;;;;;;;;;;22.40;99.90;;;;;;4995562;28;19906;-44
2022/11/21 07:31:53;;;;;;;;;;;22.40;99.90;;;;;;4994401;28;19906;-44
2022/11/21 07:34:19;;;;;;;;;;;22.40;99.90;;;;;;4995876;28;19906;-44
2022/11/21 07:36:44;;;;;;;;;;;22.50;99.90;;;;;;4995511;28;20286;-44
2022/11/21 07:39:10;;;;;;;;;;;22.50;99.90;;;;;;4995420;28;19905;-44
2022/11/21 07:41:36;;;;;;;;;;;22.50;99.90;;;;;;4995256;28;20377;-45
2022/11/21 07:44:01;;;;;;;;;;;22.50;99.90;;;;;;4995269;28;19905;-44
2022/11/21 07:46:27;;;;;;;;;;;22.60;99.90;;;;;;4995206;28;19997;-44
2022/11/21 07:48:52;;;;;;;;;;;22.60;99.90;;;;;;4995264;28;19912;-44
2022/11/21 07:51:18;;;;;;;;;;;22.60;99.90;;;;;;4995144;28;19906;-44
2022/11/21 07:53:44;;;;;;;;;;;22.60;99.90;;;;;;4994065;28;19912;-44
2022/11/21 07:56:09;;;;;;;;;;;22.70;99.90;;;;;;4995840;28;20005;-44
2022/11/21 07:58:35;;;;;;;;;;;22.70;99.90;;;;;;4994040;28;19912;-45
2022/11/21 08:01:04;;;;;;;;;;;22.70;99.90;;;;;;4994819;28;19941;-44
2022/11/21 08:03:30;;;;;;;;;;;22.70;99.90;;;;;;4995386;28;19906;-44
2022/11/21 08:05:56;;;;;;;;;;;22.80;99.90;;;;;;4995036;28;19988;-44
2022/11/21 08:08:21;;;;;;;;;;;22.80;99.90;;;;;;4995239;28;19905;-45
2022/11/21 08:10:47;;;;;;;;;;;22.80;99.90;;;;;;4995187;28;19927;-44
2022/11/21 08:13:13;;;;;;;;;;;22.80;99.90;;;;;;4995082;28;19912;-44
2022/11/21 08:15:39;;;;;;;;;;;22.90;99.90;;;;;;4994847;28;19912;-44
2022/11/21 08:18:08;;;;;;;;;;;22.90;99.90;;;;;;4994727;28;19910;-44
2022/11/21 08:20:34;;;;;;;;;;;23.00;99.90;;;;;;4993509;28;19924;-44
2022/11/21 08:23:00;;;;;;;;;;;22.90;99.90;;;;;;4994680;28;20255;-44
2022/11/21 08:25:26;;;;;;;;;;;23.00;99.90;;;;;;4994768;28;19906;-44
2022/11/21 08:27:55;;;;;;;;;;;23.00;99.90;;;;;;4994715;28;19909;-44
2022/11/21 08:30:20;;;;;;;;;;;23.10;99.90;;;;;;4994303;28;19968;-44
2022/11/21 08:32:46;;;;;;;;;;;23.10;99.90;;;;;;4994822;28;19941;-44
2022/11/21 08:35:11;;;;;;;;;;;23.10;99.90;;;;;;4994542;28;19909;-44
2022/11/21 08:37:37;;;;;;;;;;;23.10;99.90;;;;;;4994627;28;19912;-43
2022/11/21 08:40:03;;;;;;;;;;;23.20;99.90;;;;;;4994384;28;20285;-44
2022/11/21 08:42:28;;;;;;;;;;;23.20;99.90;;;;;;4994341;28;19961;-44
2022/11/21 08:44:54;;;;;;;;;;;23.20;99.90;;;;;;4994807;28;19909;-44
2022/11/21 08:47:19;;;;;;;;;;;23.20;99.90;;;;;;4992934;28;19937;-43
2022/11/21 08:49:45;;;;;;;;;;;23.30;99.90;;;;;;4994012;28;19912;-44
2022/11/21 08:52:11;;;;;;;;;;;23.30;99.90;;;;;;4993907;28;20354;-44
2022/11/21 08:54:36;;;;;;;;;;;23.30;99.90;;;;;;4994211;28;19913;-44
2022/11/21 08:57:02;;;;;;;;;;;23.30;99.90;;;;;;4994154;28;19993;-44
2022/11/21 08:59:28;;;;;;;;;;;23.40;99.90;;;;;;4993810;28;19909;-44
2022/11/21 09:01:53;;;;;;;;;;;23.40;99.90;;;;;;4992720;28;19924;-44
2022/11/21 09:04:19;;;;;;;;;;;23.50;99.90;;;;;;4993893;28;19912;-44
2022/11/21 09:06:44;;;;;;;;;;;23.50;99.90;;;;;;4993986;28;19906;-44
2022/11/21 09:09:10;;;;;;;;;;;23.50;99.90;;;;;;4992563;28;19992;-44
2022/11/21 09:11:36;;;;;;;;;;;23.50;99.90;;;;;;4993806;28;19910;-44
2022/11/21 09:19:30;;;;;;;;;;;23.60;99.90;;;;;;4993857;28;20365;-49
2022/11/21 09:21:56;;;;;;;;;;;23.60;99.90;;;;;;4993842;28;19914;-44
2022/11/21 09:24:21;;;;;;;;;;;23.70;99.90;;;;;;4993927;28;20349;-44
2022/11/21 09:26:47;;;;;;;;;;;23.70;99.90;;;;;;4993678;28;19912;-44
2022/11/21 09:29:14;;;;;;;;;;;23.80;99.90;;;;;;4993581;28;19906;-44
2022/11/21 09:31:40;;;;;;;;;;;23.80;99.90;;;;;;4993743;28;20340;-44
2022/11/21 09:34:05;;;;;;;;;;;23.80;99.90;;;;;;4993695;28;19980;-45
2022/11/21 09:36:31;;;;;;;;;;;23.90;99.90;;;;;;4976304;28;19948;-45
2022/11/21 09:38:57;;;;;;;;;;;23.90;99.90;;;;;;4993749;28;19906;-44
2022/11/21 09:44:14;;;;;;;;;;;24.00;99.90;;;;;;4984914;28;19912;-45
2022/11/21 09:46:44;;;;;;;;;;;24.00;99.90;;;;;;4997605;28;20251;-44
2022/11/21 09:49:11;;;;;;;;;;;24.10;99.90;;;;;;4995980;28;19945;-44
2022/11/21 09:51:37;;;;;;;;;;;24.10;99.90;;;;;;4997419;28;19905;-44
2022/11/21 09:54:11;;;;;;;;;;;24.20;99.90;;;;;;4997317;28;19906;-44
2022/11/21 09:56:39;;;;;;;;;;;24.20;99.90;;;;;;4997223;28;20222;-44
2022/11/21 09:59:10;;;;;;;;;;;24.20;99.90;;;;;;4997266;28;20008;-45
2022/11/21 10:01:35;;;;;;;;;;;24.30;99.90;;;;;;4996862;28;19925;-45
2022/11/21 10:04:02;;;;;;;;;;;24.30;99.90;;;;;;4997014;28;19906;-44
2022/11/21 10:06:29;;;;;;;;;;;24.30;99.90;;;;;;4997089;28;19906;-44
2022/11/21 10:08:54;;;;;;;;;;;24.40;99.90;;;;;;4996916;28;19909;-44
2022/11/21 10:11:24;;;;;;;;;;;24.40;99.90;;;;;;4996969;28;19913;-44
2022/11/21 10:13:53;;;;;;;;;;;24.50;99.90;;;;;;4983234;28;19945;-44
2022/11/21 10:16:28;;;;;;;;;;;24.50;99.90;;;;;;4996828;28;19909;-44
2022/11/21 10:19:02;;;;;;;;;;;24.60;99.90;;;;;;4996791;28;19932;-44
2022/11/21 10:21:28;;;;;;;;;;;24.60;99.90;;;;;;4996651;28;19920;-44
2022/11/21 10:24:09;;;;;;;;;;;24.70;99.90;;;;;;4996776;28;20383;-44
2022/11/21 10:26:37;;;;;;;;;;;24.70;99.90;;;;;;4996530;28;20008;-45
2022/11/21 10:29:08;;;;;;;;;;;24.70;99.90;;;;;;4996688;28;19910;-44
2022/11/21 10:31:36;;;;;;;;;;;24.80;99.90;;;;;;4996436;28;19905;-44
2022/11/21 10:34:02;;;;;;;;;;;24.80;99.90;;;;;;4996652;28;19906;-44
2022/11/21 10:36:35;;;;;;;;;;;24.80;99.90;;;;;;4996670;28;20392;-43
2022/11/21 10:39:19;;;;;;;;;;;24.90;99.90;;;;;;4996421;28;19906;-44
2022/11/21 10:42:04;;;;;;;;;;;24.90;99.90;;;;;;4996390;28;20421;-44
2022/11/21 10:47:27;;;;;;;;;;;25.00;99.90;;;;;;4996785;28;19991;-44
2022/11/21 10:50:08;;;;;;;;;;;25.00;99.90;;;;;;4996346;28;19916;-44
2022/11/21 10:52:49;;;;;;;;;;;25.00;99.90;;;;;;4995925;28;19948;-44
2022/11/21 10:55:16;;;;;;;;;;;25.10;99.90;;;;;;4993219;28;19949;-44
2022/11/21 10:57:43;;;;;;;;;;;25.10;99.90;;;;;;4995930;28;19913;-44
2022/11/21 11:00:11;;;;;;;;;;;25.10;99.90;;;;;;4995621;28;19961;-44
2022/11/21 11:02:41;;;;;;;;;;;25.20;99.90;;;;;;4995862;28;19920;-44
2022/11/21 11:05:13;;;;;;;;;;;25.20;99.90;;;;;;4995832;28;19905;-43
2022/11/21 11:07:38;;;;;;;;;;;25.20;99.90;;;;;;4995943;28;19953;-44
2022/11/21 11:10:33;;;;;;;;;;;25.20;99.90;;;;;;4995837;28;20366;-44
2022/11/21 11:15:54;;;;;;;;;;;25.20;99.90;;;;;;4996183;28;19912;-44
2022/11/21 11:18:21;;;;;;;;;;;25.30;99.90;;;;;;4995652;28;20362;-44
2022/11/21 11:20:47;;;;;;;;;;;25.20;99.90;;;;;;4994349;28;20309;-44
2022/11/21 11:23:19;;;;;;;;;;;25.30;99.90;;;;;;4995568;28;19910;-44
2022/11/21 11:25:57;;;;;;;;;;;25.30;99.90;;;;;;4995552;28;19916;-44
2022/11/21 11:28:24;;;;;;;;;;;25.30;99.90;;;;;;4995338;28;19906;-44
2022/11/21 11:30:51;;;;;;;;;;;25.30;99.90;;;;;;4995616;28;19937;-44
2022/11/21 11:33:29;;;;;;;;;;;25.30;99.90;;;;;;4995546;28;20000;-44
2022/11/21 11:35:57;;;;;;;;;;;25.30;99.90;;;;;;4994054;28;20350;-45
2022/11/21 11:38:25;;;;;;;;;;;25.30;99.90;;;;;;4995472;28;20254;-44
2022/11/21 11:40:52;;;;;;;;;;;25.30;99.90;;;;;;4995010;28;19914;-44
2022/11/21 11:49:09;;;;;;;;;;;25.40;99.90;;;;;;4995270;28;19917;-43
2022/11/21 11:51:40;;;;;;;;;;;25.40;99.90;;;;;;4994990;28;19929;-42
2022/11/21 11:54:10;;;;;;;;;;;25.40;99.90;;;;;;4994959;28;20281;-44
2022/11/21 11:56:37;;;;;;;;;;;25.40;99.90;;;;;;4994892;28;19906;-43
2022/11/21 11:59:02;;;;;;;;;;;25.50;99.90;;;;;;4995018;28;19906;-43
2022/11/21 12:01:40;;;;;;;;;;;25.50;99.90;;;;;;4994861;28;19922;-44
2022/11/21 12:04:13;;;;;;;;;;;25.50;99.90;;;;;;4994642;28;19952;-43
2022/11/21 12:06:39;;;;;;;;;;;25.60;99.90;;;;;;4994129;28;19956;-43
2022/11/21 12:09:23;;;;;;;;;;;25.60;99.90;;;;;;4994595;28;20258;-44
2022/11/21 12:12:06;;;;;;;;;;;25.60;99.90;;;;;;4994585;28;19997;-43
2022/11/21 12:17:20;;;;;;;;;;;25.60;99.90;;;;;;4994432;28;20270;-43
2022/11/21 12:19:47;;;;;;;;;;;25.60;99.90;;;;;;4994646;28;20386;-43
2022/11/21 12:22:12;;;;;;;;;;;25.60;99.90;;;;;;4994598;28;19920;-43
2022/11/21 12:24:38;;;;;;;;;;;25.60;99.90;;;;;;4994400;28;20004;-44
2022/11/21 12:27:04;;;;;;;;;;;25.50;99.90;;;;;;4977140;28;20373;-44
2022/11/21 12:29:29;;;;;;;;;;;25.50;99.90;;;;;;4994380;28;19912;-43
2022/11/21 12:32:04;;;;;;;;;;;25.50;99.90;;;;;;4994426;28;19974;-44
2022/11/21 12:34:32;;;;;;;;;;;25.50;99.90;;;;;;4994442;28;19952;-44
2022/11/21 12:37:18;;;;;;;;;;;25.40;99.90;;;;;;4994290;28;20381;-42
2022/11/21 12:39:43;;;;;;;;;;;25.40;99.90;;;;;;4994441;28;19906;-43
2022/11/21 12:45:19;;;;;;;;;;;25.40;99.90;;;;;;4994213;28;19960;-43
2022/11/21 12:56:46;;;;;;;;;;;25.30;99.90;;;;;;4993893;28;19968;-43
2022/11/21 12:59:12;;;;;;;;;;;25.30;99.90;;;;;;4993993;28;19952;-43
2022/11/21 13:01:44;;;;;;;;;;;25.30;99.90;;;;;;4993686;28;19918;-44
2022/11/21 13:04:16;;;;;;;;;;;25.30;99.90;;;;;;4993889;28;19912;-42
2022/11/21 13:06:43;;;;;;;;;;;25.30;99.90;;;;;;4993936;28;20001;-44
2022/11/21 13:09:12;;;;;;;;;;;25.30;99.90;;;;;;4993846;28;19956;-43
2022/11/21 13:12:00;;;;;;;;;;;25.30;99.90;;;;;;4993894;28;19905;-43
2022/11/21 13:14:26;;;;;;;;;;;25.30;99.90;;;;;;4967338;28;19913;-43
2022/11/21 13:17:03;;;;;;;;;;;25.30;99.90;;;;;;4994428;28;20309;-43
2022/11/21 13:19:31;;;;;;;;;;;25.30;99.90;;;;;;4997860;28;19905;-43
2022/11/21 13:21:57;;;;;;;;;;;25.30;99.90;;;;;;4997767;28;19964;-43
2022/11/21 13:24:41;;;;;;;;;;;25.20;99.90;;;;;;4997918;28;20381;-43
2022/11/21 13:27:07;;;;;;;;;;;25.30;99.90;;;;;;4997805;28;20281;-43
2022/11/21 13:29:33;;;;;;;;;;;25.30;99.90;;;;;;4997764;28;19905;-43
2022/11/21 13:32:18;;;;;;;;;;;25.30;99.90;;;;;;4997651;28;20375;-43
2022/11/21 13:34:44;;;;;;;;;;;25.30;99.90;;;;;;4997688;28;19913;-44
2022/11/21 13:37:29;;;;;;;;;;;25.30;99.90;;;;;;4996175;28;19906;-43
2022/11/21 13:40:15;;;;;;;;;;;25.30;99.90;;;;;;4997411;28;19909;-43
2022/11/21 13:43:13;;;;;;;;;;;25.30;99.90;;;;;;4996126;28;19917;-43
2022/11/21 13:45:42;;;;;;;;;;;25.30;99.90;;;;;;4947992;28;19905;-43
2022/11/21 13:48:14;;;;;;;;;;;25.30;99.90;;;;;;4997406;28;19929;-43
2022/11/21 13:50:46;;;;;;;;;;;25.30;99.90;;;;;;4997553;28;20366;-44
2022/11/21 13:53:30;;;;;;;;;;;25.30;99.90;;;;;;4997292;28;19925;-43
2022/11/21 13:55:58;;;;;;;;;;;25.30;99.90;;;;;;4995964;28;19913;-43
2022/11/21 13:58:33;;;;;;;;;;;25.30;99.90;;;;;;4996229;28;19929;-44
2022/11/21 14:01:17;;;;;;;;;;;25.30;99.90;;;;;;4992007;28;19929;-44
2022/11/21 14:04:01;;;;;;;;;;;25.30;99.90;;;;;;4996186;28;19906;-43
2022/11/21 14:06:33;;;;;;;;;;;25.30;99.90;;;;;;4995642;28;19906;-43
2022/11/21 14:09:17;;;;;;;;;;;25.30;99.90;;;;;;4997027;28;20390;-44
2022/11/21 14:11:46;;;;;;;;;;;25.30;99.90;;;;;;4997360;28;19910;-43
2022/11/21 14:14:21;;;;;;;;;;;25.30;99.90;;;;;;4996923;28;19931;-43
2022/11/21 14:16:50;;;;;;;;;;;25.30;99.90;;;;;;4992075;28;19909;-43
2022/11/21 14:19:19;;;;;;;;;;;25.30;99.90;;;;;;4995973;28;20302;-43
2022/11/21 14:21:45;;;;;;;;;;;25.30;99.90;;;;;;4995448;28;19925;-44
2022/11/21 14:24:16;;;;;;;;;;;25.30;99.90;;;;;;4996816;28;19906;-44
2022/11/21 14:26:44;;;;;;;;;;;25.30;99.90;;;;;;4996960;28;19960;-42
2022/11/21 14:29:15;;;;;;;;;;;25.30;99.90;;;;;;4996158;28;19968;-43
2022/11/21 14:31:48;;;;;;;;;;;25.30;99.90;;;;;;4987244;28;19922;-41
2022/11/21 14:34:22;;;;;;;;;;;25.30;99.90;;;;;;4992326;28;19992;-42
2022/11/21 14:36:48;;;;;;;;;;;25.30;99.90;;;;;;4990325;28;20362;-42
2022/11/21 14:39:15;;;;;;;;;;;25.30;99.90;;;;;;4994759;28;19914;-45
2022/11/21 14:41:41;;;;;;;;;;;25.30;99.90;;;;;;4993792;28;19921;-43
2022/11/21 14:44:07;;;;;;;;;;;25.30;99.90;;;;;;4992725;28;19905;-44
2022/11/21 14:46:34;;;;;;;;;;;25.30;99.90;;;;;;5000221;28;20452;-43
2022/11/21 14:49:15;;;;;;;;;;;25.30;99.90;;;;;;4991749;28;19909;-43
2022/11/21 14:51:46;;;;;;;;;;;25.30;99.90;;;;;;4987541;28;19914;-41
2022/11/21 14:54:13;;;;;;;;;;;25.30;99.90;;;;;;4993913;28;20004;-42
2022/11/21 14:56:40;;;;;;;;;;;25.30;99.90;;;;;;4992892;28;19906;-42
2022/11/21 14:59:11;;;;;;;;;;;25.30;99.90;;;;;;4991014;28;19910;-42
2022/11/21 15:01:36;;;;;;;;;;;25.30;99.90;;;;;;4989623;28;19917;-42
2022/11/21 15:04:03;;;;;;;;;;;25.20;99.90;;;;;;4994173;28;19913;-42